Latest Coastal Weather Observations for Swan Island

IDT60701

Issued at 3:22 pm EDT Monday 23 January 2017 (issued every 10 minutes, with the page automatically refreshed every 10 minutes)

About coastal observations | Map of coastal stations | Coastal observations for TAS | Marine services | Other Formats
Station Details ID: 092123 Name: SWAN ISLAND Lat: -40.73 Lon: 148.12 Height: 15.0 m
Data from the previous 72 hours. | See also: Recent months at Swan Island
Date/Time
EDT
Temp
°C
Wind Pressure Rain since
9am
mm
Weather Cloud Vis
km
Sea
Height
m
Swell
Dir  Spd
kts
Gust
kts
hPa Trend Height
m
Period
s
Dir
23/03:00pm 21.4 ESE 7 9 1004.2 - 0.0 - - - - - - -
23/02:30pm 21.4 SE 6 7 1005.0 - 0.0 - - - - - - -
23/02:00pm 21.4 SE 7 9 1005.3 - 0.0 - - - - - - -
23/01:30pm 20.7 ESE 8 9 1005.6 - 0.0 - - - - - - -
23/01:00pm 20.7 SE 7 10 1006.1 - 0.0 - - - - - - -
23/12:30pm 20.9 SE 8 10 1006.4 - 0.0 - - - - - - -
23/12:00pm 21.3 SE 9 12 1006.8 - 0.0 - - - - - - -
23/11:30am 19.9 SE 8 11 1007.1 - 0.0 - - - - - - -
23/11:00am 19.6 ESE 8 10 1007.2 - 0.0 - - - - - - -
23/10:30am 19.1 SE 7 9 1007.5 - 0.0 - - - - - - -
23/10:00am 19.1 SE 6 8 1007.9 - 0.0 - - - - - - -
23/09:30am 19.4 E 5 7 1008.4 - 0.0 - - - - - - -
23/09:00am 18.4 SE 5 6 1009.0 - 0.0 - - - - - - -
23/08:30am 17.6 ESE 6 8 1008.8 - 0.0 - - - - - - -
23/08:00am 16.8 SSE 5 6 1008.9 - 0.0 - - - - - - -
23/07:30am 16.2 S 5 6 1009.4 - 0.0 - - - - - - -
23/07:00am 15.4 SSE 5 6 1009.4 - 0.0 - - - - - - -
23/06:30am 14.8 S 6 7 1009.5 - 0.0 - - - - - - -
23/06:00am 14.7 S 7 8 1009.6 - 0.0 - - - - - - -
23/05:30am 14.9 SSE 5 6 1009.7 - 0.0 - - - - - - -
23/05:00am 15.1 S 5 5 1009.9 - 0.0 - - - - - - -
23/04:30am 15.5 WNW 2 3 1010.0 - 0.0 - - - - - - -
23/04:00am 15.7 WNW 4 5 1010.1 - 0.0 - - - - - - -
23/03:30am 15.7 WNW 5 6 1010.5 - 0.0 - - - - - - -
23/03:00am 15.9 NW 3 4 1010.9 - 0.0 - - - - - - -
23/02:30am 16.1 WNW 5 6 1011.0 - 0.0 - - - - - - -
23/02:00am 16.3 WNW 5 7 1011.4 - 0.0 - - - - - - -
23/01:30am 16.4 WNW 7 9 1011.9 - 0.0 - - - - - - -
23/01:00am 16.4 WNW 7 9 1012.2 - 0.0 - - - - - - -
23/12:30am 16.5 WNW 8 10 1012.5 - 0.0 - - - - - - -
23/12:00am 16.5 WNW 7 9 1012.6 - 0.0 - - - - - - -
 
Date/Time
EDT
Temp
°C
Wind Pressure Rain since
9am
mm
Weather Cloud Vis
km
Sea
Height
m
Swell
Dir  Spd
kts
Gust
kts
hPa Trend Height
m
Period
s
Dir
22/11:30pm 16.4 WNW 8 11 1012.8 - 0.0 - - - - - - -
22/11:00pm 16.5 WNW 9 11 1013.0 - 0.0 - - - - - - -
22/10:30pm 16.4 WNW 8 11 1013.3 - 0.0 - - - - - - -
22/10:00pm 16.4 WNW 8 10 1013.5 - 0.0 - - - - - - -
22/09:30pm 16.4 WNW 8 11 1013.5 - 0.0 - - - - - - -
22/09:00pm 16.4 WNW 10 12 1013.3 - 0.0 - - - - - - -
22/08:30pm 16.5 WNW 9 11 1013.2 - 0.0 - - - - - - -
22/08:00pm 17.0 WNW 8 10 1013.3 - 0.0 - - - - - - -
22/07:30pm 17.4 WNW 9 11 1013.3 - 0.0 - - - - - - -
22/07:00pm 17.8 WNW 10 13 1013.1 - 0.0 - - - - - - -
22/06:30pm 18.2 NW 10 13 1013.1 - 0.0 - - - - - - -
22/06:00pm 18.4 WNW 12 15 1013.2 - 0.0 - - - - - - -
22/05:30pm 18.8 WNW 13 16 1013.3 - 0.0 - - - - - - -
22/05:00pm 18.9 WNW 11 16 1013.5 - 0.0 - - - - - - -
22/04:30pm 19.4 NW 11 14 1013.8 - 0.0 - - - - - - -
22/04:00pm 19.6 WNW 11 16 1013.9 - 0.0 - - - - - - -
22/03:30pm 19.4 WNW 13 18 1014.0 - 0.0 - - - - - - -
22/03:00pm 20.0 WNW 11 15 1014.1 - 0.0 - - - - - - -
22/02:30pm 20.0 WNW 11 16 1014.4 - 0.0 - - - - - - -
22/02:00pm 19.5 WNW 13 18 1014.5 - 0.0 - - - - - - -
22/01:30pm 20.1 WNW 11 15 1014.8 - 0.0 - - - - - - -
22/01:00pm 19.6 WNW 11 15 1015.1 - 0.0 - - - - - - -
22/12:30pm 19.6 WNW 11 15 1015.2 - 0.0 - - - - - - -
22/12:00pm 19.6 NW 10 13 1015.3 - 0.0 - - - - - - -
22/11:30am 19.3 NW 10 13 1015.4 - 0.0 - - - - - - -
22/11:00am 18.9 NW 8 11 1015.4 - 0.0 - - - - - - -
22/10:30am 18.7 NW 7 9 1015.4 - 0.0 - - - - - - -
22/10:00am 18.4 NW 6 8 1015.7 - 0.0 - - - - - - -
22/09:30am 18.0 NNW 4 5 1015.6 - 0.0 - - - - - - -
22/09:00am 17.9 NW 3 4 1015.8 - 0.0 - - - - - - -
22/08:30am 17.5 NW 2 3 1015.8 - 0.0 - - - - - - -
22/08:00am 17.1 CALM 0 0 1015.6 - 0.0 - - - - - - -
22/07:30am 15.9 SW 1 2 1015.5 - 0.0 - - - - - - -
22/07:00am 15.7 SW 2 3 1015.2 - 0.0 - - - - - - -
22/06:30am 14.7 SW 2 3 1015.1 - 0.0 - - - - - - -
22/06:00am 14.4 SW 2 2 1014.7 - 0.0 - - - - - - -
22/05:30am 14.1 SW 3 3 1014.4 - 0.0 - - - - - - -
22/05:00am 14.3 SW 3 4 1014.1 - 0.0 - - - - - - -
22/04:30am 14.1 SSW 3 3 1013.6 - 0.0 - - - - - - -
22/04:00am 14.8 SSW 1 3 1013.4 - 0.0 - - - - - - -
22/03:30am 14.8 SSW 2 3 1013.6 - 0.0 - - - - - - -
22/03:00am 14.8 SSW 4 5 1013.6 - 0.0 - - - - - - -
22/02:30am 14.6 SW 5 6 1013.6 - 0.0 - - - - - - -
22/02:00am 14.7 WSW 5 7 1013.7 - 0.0 - - - - - - -
22/01:30am 15.1 SW 5 8 1013.6 - 0.0 - - - - - - -
22/01:00am 15.8 WSW 8 13 1013.8 - 0.0 - - - - - - -
22/12:30am 15.9 WSW 7 10 1013.6 - 0.0 - - - - - - -
22/12:00am 16.3 W 10 15 1013.6 - 0.0 - - - - - - -
 
Date/Time
EDT
Temp
°C
Wind Pressure Rain since
9am
mm
Weather Cloud Vis
km
Sea
Height
m
Swell
Dir  Spd
kts
Gust
kts
hPa Trend Height
m
Period
s
Dir
21/11:30pm 16.4 W 11 14 1013.4 - 0.0 - - - - - - -
21/11:00pm 16.5 W 13 16 1013.6 - 0.0 - - - - - - -
21/10:30pm 16.5 W 14 17 1013.5 - 0.0 - - - - - - -
21/10:00pm 16.5 W 13 17 1013.5 - 0.0 - - - - - - -
21/09:30pm 16.5 W 14 18 1013.3 - 0.0 - - - - - - -
21/09:00pm 16.6 W 15 20 1013.1 - 0.0 - - - - - - -
21/08:30pm 16.6 W 16 22 1012.9 - 0.0 - - - - - - -
21/08:00pm 17.2 W 14 22 1012.8 - 0.0 - - - - - - -
21/07:30pm 17.5 W 15 23 1012.4 - 0.0 - - - - - - -
21/07:00pm 18.1 W 14 22 1012.0 - 0.0 - - - - - - -
21/06:30pm 18.4 W 16 23 1011.7 - 0.0 - - - - - - -
21/06:00pm 18.7 W 16 23 1011.6 - 0.0 - - - - - - -
21/05:30pm 18.9 W 15 23 1011.6 - 0.0 - - - - - - -
21/05:00pm 19.1 W 14 25 1011.7 - 0.0 - - - - - - -
21/04:33pm 19.0 W 15 25 1011.8 - 0.0 - - - - - - -
21/04:30pm 19.2 W 15 23 1011.8 - 0.0 - - - - - - -
21/04:00pm 19.0 W 16 24 1011.8 - 0.0 - - - - - - -
21/03:30pm 19.4 W 14 24 1011.8 - 0.0 - - - - - - -
21/03:00pm 19.2 WNW 15 23 1011.9 - 0.0 - - - - - - -
21/02:30pm 19.2 WNW 14 22 1011.8 - 0.0 - - - - - - -
21/02:00pm 19.1 WNW 15 19 1011.9 - 0.0 - - - - - - -
21/01:30pm 19.4 WNW 13 19 1011.9 - 0.0 - - - - - - -
21/01:00pm 18.6 WNW 11 17 1011.6 - 0.0 - - - - - - -
21/12:30pm 18.8 WNW 10 14 1011.4 - 0.0 - - - - - - -
21/12:00pm 18.4 WNW 8 12 1011.3 - 0.0 - - - - - - -
21/11:30am 18.1 WNW 9 12 1011.2 - 0.0 - - - - - - -
21/11:00am 17.8 WNW 8 12 1011.3 - 0.0 - - - - - - -
21/10:30am 16.5 NNW 5 7 1011.1 - 0.0 - - - - - - -
21/10:00am 16.1 NW 5 7 1011.1 - 0.0 - - - - - - -
21/09:30am 15.6 NNW 4 6 1010.8 - 0.0 - - - - - - -
21/09:00am 15.7 SSE 4 5 1010.6 - 10.2 - - - - - - -
21/08:30am 15.3 SE 3 5 1010.2 - 10.2 - - - - - - -
21/08:00am 15.0 CALM 0 1 1009.7 - 10.2 - - - - - - -
21/07:30am 13.3 SW 3 5 1008.9 - 10.2 - - - - - - -
21/07:00am 12.6 SW 2 3 1008.3 - 10.2 - - - - - - -
21/06:30am 12.3 SSW 3 4 1007.6 - 10.2 - - - - - - -
21/06:00am 12.4 S 1 3 1007.2 - 10.2 - - - - - - -
21/05:30am 12.4 S 4 5 1006.6 - 10.2 - - - - - - -
21/05:00am 12.1 S 4 6 1006.0 - 10.2 - - - - - - -
21/04:30am 11.8 WSW 4 5 1005.8 - 10.2 - - - - - - -
21/04:00am 12.7 W 3 4 1005.3 - 10.2 - - - - - - -
21/03:30am 13.4 WNW 4 5 1004.8 - 10.2 - - - - - - -
21/03:00am 12.8 W 3 4 1004.8 - 10.2 - - - - - - -
21/02:30am 13.0 WSW 2 3 1004.7 - 10.2 - - - - - - -
21/02:00am 13.1 WSW 2 2 1004.4 - 10.2 - - - - - - -
21/01:30am 12.7 SSW 3 4 1004.3 - 10.2 - - - - - - -
21/01:00am 13.7 S 2 3 1004.3 - 10.2 - - - - - - -
21/12:30am 13.5 S 2 2 1004.3 - 10.2 - - - - - - -
21/12:00am 14.0 S 3 3 1004.0 - 10.2 - - - - - - -
 
Date/Time
EDT
Temp
°C
Wind Pressure Rain since
9am
mm
Weather Cloud Vis
km
Sea
Height
m
Swell
Dir  Spd
kts
Gust
kts
hPa Trend Height
m
Period
s
Dir
20/11:30pm 14.4 SSE 3 5 1003.9 - 10.2 - - - - - - -
20/11:00pm 14.7 SE 6 8 1003.4 - 10.2 - - - - - - -
20/10:30pm 15.0 SSE 8 9 1003.2 - 10.2 - - - - - - -
20/10:00pm 15.0 SSE 8 12 1002.8 - 10.2 - - - - - - -
20/09:30pm 15.5 SSE 9 13 1002.7 - 10.2 - - - - - - -
20/09:00pm 15.6 SSE 11 14 1001.7 - 10.2 - - - - - - -
20/08:30pm 16.0 SSE 13 16 1000.7 - 10.2 - - - - - - -
20/08:00pm 16.5 SE 11 14 1000.2 - 10.2 - - - - - - -
20/07:30pm 17.3 SSE 13 17 999.7 - 10.2 - - - - - - -
20/07:00pm 18.2 S 8 15 999.0 - 10.2 - - - - - - -
20/06:30pm 17.7 S 11 17 998.1 - 10.2 - - - - - - -
20/06:00pm 16.7 S 14 21 997.0 - 10.2 - - - - - - -
20/05:30pm 17.7 S 11 20 996.1 - 10.2 - - - - - - -
20/05:00pm 16.8 S 15 22 995.0 - 10.2 - - - - - - -
20/04:30pm 16.6 S 20 31 993.7 - 10.2 - - - - - - -
20/04:27pm 16.6 SSE 20 31 993.6 - 10.2 - - - - - - -
20/04:00pm 16.0 S 16 25 993.6 - 10.2 - - - - - - -
20/03:34pm 15.8 S 16 27 993.3 - 10.2 - - - - - - -
20/03:30pm 15.8 S 17 27 993.1 - 10.2 - - - - - - -

Other Formats:

Comma delimited format used in spreadsheet applications
http://www.bom.gov.au/fwo/IDT60701/IDT60701.95985.axf

JavaScript Object Notation format (JSON) in row-major order
http://www.bom.gov.au/fwo/IDT60701/IDT60701.95985.json